createdAt,value
2022-10-28T00:02:49.293Z,1016.40
2022-10-28T00:07:50.144Z,1016.46
2022-10-28T00:12:50.469Z,1016.42
2022-10-28T00:17:51.469Z,1016.48
2022-10-28T00:22:51.871Z,1016.62
2022-10-28T00:27:53.055Z,1016.51
2022-10-28T00:32:53.529Z,1016.47
2022-10-28T00:37:53.947Z,1016.46
2022-10-28T00:42:55.102Z,1016.40
2022-10-28T00:47:56.101Z,1016.36
2022-10-28T00:52:56.240Z,1016.34
2022-10-28T00:57:57.014Z,1016.30
2022-10-28T01:02:57.746Z,1016.33
2022-10-28T01:07:58.600Z,1016.24
2022-10-28T01:12:59.431Z,1016.15
2022-10-28T01:18:00.295Z,1016.19
2022-10-28T01:23:00.993Z,1016.17
2022-10-28T01:28:01.723Z,1016.09
2022-10-28T01:33:02.411Z,1016.12
2022-10-28T01:38:03.170Z,1015.98
2022-10-28T01:43:03.984Z,1016.03
2022-10-28T01:48:04.772Z,1016.00
2022-10-28T01:53:05.574Z,1015.90
2022-10-28T01:58:06.265Z,1015.96
2022-10-28T02:03:07.148Z,1015.90
2022-10-28T02:08:07.838Z,1015.85
2022-10-28T02:13:08.533Z,1015.78
2022-10-28T02:18:09.354Z,1015.79
2022-10-28T02:23:10.051Z,1015.78
2022-10-28T02:33:11.537Z,1015.76
2022-10-28T02:38:12.311Z,1015.85
2022-10-28T02:43:13.098Z,1015.83
2022-10-28T02:48:13.861Z,1015.71
2022-10-28T02:53:14.600Z,1015.71
2022-10-28T02:58:15.361Z,1015.79
2022-10-28T03:03:16.053Z,1015.86
2022-10-28T03:08:16.873Z,1015.77
2022-10-28T03:13:17.611Z,1015.75
2022-10-28T03:18:18.417Z,1015.70
2022-10-28T03:23:26.083Z,1015.65
2022-10-28T03:28:19.797Z,1015.62
2022-10-28T03:33:20.542Z,1015.65
2022-10-28T03:38:21.296Z,1015.73
2022-10-28T03:43:21.991Z,1015.83
2022-10-28T03:48:22.768Z,1015.86
2022-10-28T03:53:27.487Z,1015.77
2022-10-28T03:58:25.130Z,1015.81
2022-10-28T04:03:24.873Z,1015.76
2022-10-28T04:08:25.557Z,1015.62
2022-10-28T04:13:26.274Z,1015.58
2022-10-28T04:18:26.996Z,1015.60
2022-10-28T04:23:27.705Z,1015.74
2022-10-28T04:28:28.448Z,1015.74
2022-10-28T04:33:29.367Z,1015.66
2022-10-28T04:38:30.267Z,1015.58
2022-10-28T04:43:30.985Z,1015.60
2022-10-28T04:48:31.830Z,1015.58
2022-10-28T04:53:32.588Z,1015.49
2022-10-28T04:58:33.325Z,1015.45
2022-10-28T05:03:34.005Z,1015.41
2022-10-28T05:08:34.767Z,1015.50
2022-10-28T05:13:35.502Z,1015.40
2022-10-28T05:18:36.312Z,1015.44
2022-10-28T05:23:36.981Z,1015.40
2022-10-28T05:28:37.697Z,1015.27
2022-10-28T05:33:38.426Z,1015.28
2022-10-28T05:38:39.127Z,1015.30
2022-10-28T05:43:39.812Z,1015.25
2022-10-28T05:48:40.475Z,1015.27
2022-10-28T05:53:41.173Z,1015.21
2022-10-28T05:58:41.900Z,1015.13
2022-10-28T06:03:42.652Z,1015.22
2022-10-28T06:08:43.344Z,1015.24
2022-10-28T06:13:42.618Z,1015.18
2022-10-28T06:18:43.335Z,1015.07
2022-10-28T06:23:44.024Z,1015.05
2022-10-28T06:28:44.659Z,1015.14
2022-10-28T06:33:45.353Z,1015.12
2022-10-28T06:38:46.099Z,1015.11
2022-10-28T06:43:46.731Z,1015.09
2022-10-28T06:48:48.966Z,1015.00
2022-10-28T06:53:49.648Z,1014.96
2022-10-28T06:58:50.317Z,1015.20
2022-10-28T07:03:50.987Z,1015.13
2022-10-28T07:08:51.678Z,1015.29
2022-10-28T07:13:52.372Z,1015.33
2022-10-28T07:18:53.076Z,1015.30
2022-10-28T07:23:53.736Z,1015.16
2022-10-28T07:28:54.517Z,1015.21
2022-10-28T07:33:55.183Z,1015.25
2022-10-28T07:38:56.026Z,1015.32
2022-10-28T07:43:56.678Z,1015.25
2022-10-28T07:48:57.361Z,1015.20
2022-10-28T07:53:58.039Z,1015.27
2022-10-28T07:58:58.735Z,1015.34
2022-10-28T08:03:59.452Z,1015.22
2022-10-28T08:09:00.143Z,1015.19
2022-10-28T08:14:00.787Z,1015.36
2022-10-28T08:19:06.695Z,1015.48
2022-10-28T08:24:02.983Z,1015.51
2022-10-28T08:29:02.713Z,1015.35
2022-10-28T08:34:03.348Z,1015.27
2022-10-28T08:39:04.010Z,1015.65
2022-10-28T08:44:04.755Z,1015.71
2022-10-28T08:49:05.402Z,1015.48
2022-10-28T08:54:06.046Z,1015.58
2022-10-28T08:59:06.768Z,1015.45
2022-10-28T09:04:07.460Z,1015.47
2022-10-28T09:09:08.120Z,1015.55
2022-10-28T09:14:08.839Z,1015.44
2022-10-28T09:19:09.517Z,1015.30
2022-10-28T09:24:17.175Z,1015.20
2022-10-28T09:29:10.829Z,1015.13
2022-10-28T09:34:11.600Z,1015.08
2022-10-28T09:39:12.409Z,1015.05
2022-10-28T09:44:13.095Z,1015.08
2022-10-28T09:49:13.761Z,1015.09
2022-10-28T09:54:14.473Z,1015.07
2022-10-28T09:59:15.148Z,1015.03
2022-10-28T10:04:15.951Z,1014.94
2022-10-28T10:09:16.668Z,1014.80
2022-10-28T10:14:17.324Z,1014.74
2022-10-28T10:19:18.058Z,1014.73
2022-10-28T10:24:18.849Z,1014.72
2022-10-28T10:29:19.510Z,1014.67
2022-10-28T10:34:20.211Z,1014.62
2022-10-28T10:39:20.872Z,1014.52
2022-10-28T10:44:21.559Z,1014.53
2022-10-28T10:49:22.164Z,1014.47
2022-10-28T10:54:22.981Z,1014.44
2022-10-28T10:59:23.761Z,1014.39
2022-10-28T11:04:24.511Z,1014.29
2022-10-28T11:09:25.280Z,1014.24
2022-10-28T11:14:25.932Z,1014.22
2022-10-28T11:19:26.615Z,1014.23
2022-10-28T11:24:27.254Z,1014.22
2022-10-28T11:29:27.983Z,1014.22
2022-10-28T11:34:28.652Z,1014.22
2022-10-28T11:39:29.325Z,1014.20
2022-10-28T11:44:30.158Z,1014.13
2022-10-28T11:49:30.899Z,1014.07
2022-10-28T11:54:31.556Z,1014.01
2022-10-28T11:59:32.255Z,1013.96
2022-10-28T12:04:32.934Z,1014.00
2022-10-28T12:09:33.573Z,1013.98
2022-10-28T12:14:34.287Z,1014.00
2022-10-28T12:19:34.910Z,1013.97
2022-10-28T12:24:35.637Z,1013.95
2022-10-28T12:29:36.289Z,1013.91
2022-10-28T12:39:37.565Z,1013.81
2022-10-28T12:44:38.303Z,1013.76
2022-10-28T12:49:38.980Z,1013.72
2022-10-28T12:54:39.739Z,1013.63
2022-10-28T12:59:40.552Z,1013.57
2022-10-28T13:04:41.369Z,1013.59
2022-10-28T13:09:42.119Z,1013.62
2022-10-28T13:14:42.880Z,1013.58
2022-10-28T13:19:43.541Z,1013.50
2022-10-28T13:24:44.390Z,1013.44
2022-10-28T13:29:45.109Z,1013.36
2022-10-28T13:34:45.763Z,1013.31
2022-10-28T13:39:46.465Z,1013.29
2022-10-28T13:44:47.134Z,1013.29
2022-10-28T13:49:47.790Z,1013.27
2022-10-28T13:54:48.612Z,1013.25
2022-10-28T13:59:49.409Z,1013.29
2022-10-28T14:04:50.164Z,1013.25
2022-10-28T14:09:50.891Z,1013.24
2022-10-28T14:14:51.667Z,1013.33
2022-10-28T14:19:52.311Z,1013.30
2022-10-28T14:24:53.010Z,1013.25
2022-10-28T14:29:53.652Z,1013.23
2022-10-28T14:34:54.391Z,1013.20
2022-10-28T14:39:55.062Z,1013.18
2022-10-28T14:44:55.665Z,1013.18
2022-10-28T14:49:56.486Z,1013.21
2022-10-28T14:54:57.237Z,1013.17
2022-10-28T14:59:57.880Z,1013.12
2022-10-28T15:04:58.547Z,1013.08
2022-10-28T15:09:59.240Z,1013.06
2022-10-28T15:15:00.019Z,1013.06
2022-10-28T15:20:07.635Z,1013.01
2022-10-28T15:25:01.291Z,1013.00
2022-10-28T15:30:01.986Z,1013.08
2022-10-28T15:35:02.652Z,1013.05
2022-10-28T15:40:06.329Z,1013.01
2022-10-28T15:45:04.839Z,1012.97
2022-10-28T15:50:04.613Z,1012.99
2022-10-28T15:55:05.448Z,1012.96
2022-10-28T16:00:06.122Z,1012.98
2022-10-28T16:05:06.794Z,1012.93
2022-10-28T16:10:07.470Z,1012.97
2022-10-28T16:15:08.196Z,1012.93
2022-10-28T16:20:10.501Z,1012.91
2022-10-28T16:25:09.684Z,1012.88
2022-10-28T16:30:10.502Z,1012.91
2022-10-28T16:35:11.228Z,1012.92
2022-10-28T16:40:30.953Z,1012.95
2022-10-28T16:45:13.559Z,1013.01
2022-10-28T16:50:13.254Z,1012.95
2022-10-28T16:55:13.995Z,1012.90
2022-10-28T17:00:15.255Z,1012.96
2022-10-28T17:05:15.433Z,1012.88
2022-10-28T17:10:16.246Z,1012.96
2022-10-28T17:15:16.936Z,1012.79
2022-10-28T17:20:17.742Z,1012.92
2022-10-28T17:25:18.531Z,1013.00
2022-10-28T17:30:19.396Z,1013.05
2022-10-28T17:35:19.806Z,1013.03
2022-10-28T17:40:20.543Z,1012.99
2022-10-28T17:45:22.188Z,1012.95
2022-10-28T17:50:21.962Z,1012.94
2022-10-28T17:55:22.753Z,1012.94
2022-10-28T18:00:23.491Z,1012.96
2022-10-28T18:05:24.184Z,1012.96
2022-10-28T18:10:24.910Z,1012.98
2022-10-28T18:15:25.630Z,1012.99
2022-10-28T18:20:26.355Z,1013.01
2022-10-28T18:25:27.091Z,1012.96
2022-10-28T18:30:27.814Z,1012.94
2022-10-28T18:35:28.549Z,1012.93
2022-10-28T18:40:29.293Z,1012.96
2022-10-28T18:45:30.048Z,1012.95
2022-10-28T18:50:30.759Z,1012.98
2022-10-28T18:55:31.495Z,1012.96
2022-10-28T19:00:32.234Z,1012.90
2022-10-28T19:05:32.944Z,1012.89
2022-10-28T19:10:33.694Z,1012.93
2022-10-28T19:15:34.449Z,1012.96
2022-10-28T19:20:35.235Z,1012.86
2022-10-28T19:25:35.932Z,1012.90
2022-10-28T19:30:36.681Z,1012.91
2022-10-28T19:35:37.401Z,1012.93
2022-10-28T19:40:38.126Z,1012.99
2022-10-28T19:45:38.862Z,1013.04
2022-10-28T19:50:39.586Z,1013.07
2022-10-28T19:55:40.307Z,1013.11
2022-10-28T20:00:41.026Z,1013.13
2022-10-28T20:05:41.764Z,1013.20
2022-10-28T20:10:42.552Z,1013.31
2022-10-28T20:15:43.304Z,1013.26
2022-10-28T20:20:44.095Z,1013.29
2022-10-28T20:25:44.813Z,1013.40
2022-10-28T20:30:45.521Z,1013.45
2022-10-28T20:35:46.254Z,1013.42
2022-10-28T20:40:47.001Z,1013.40
2022-10-28T20:45:47.765Z,1013.42
2022-10-28T20:50:48.493Z,1013.40
2022-10-28T20:55:49.200Z,1013.41
2022-10-28T21:00:49.917Z,1013.45
2022-10-28T21:05:50.667Z,1013.45
2022-10-28T21:10:51.382Z,1013.50
2022-10-28T21:15:56.509Z,1013.52
2022-10-28T21:26:42.638Z,1013.56
2022-10-28T21:31:43.425Z,1013.52
2022-10-28T21:36:44.147Z,1013.49
2022-10-28T21:41:44.836Z,1013.49
2022-10-28T21:46:45.572Z,1013.47
2022-10-28T21:51:46.418Z,1013.48
2022-10-28T21:56:47.219Z,1013.47
2022-10-28T22:01:48.189Z,1013.43
2022-10-28T22:11:49.117Z,1013.47
2022-10-28T22:16:49.839Z,1013.53
2022-10-28T22:21:50.567Z,1013.58
2022-10-28T22:26:51.274Z,1013.57
2022-10-28T22:31:52.093Z,1013.63
2022-10-28T22:36:52.857Z,1013.63
2022-10-28T22:41:53.633Z,1013.63
2022-10-28T22:46:54.480Z,1013.69
2022-10-28T22:51:55.282Z,1013.68
2022-10-28T22:56:55.977Z,1013.69
2022-10-28T23:01:56.786Z,1013.89
2022-10-28T23:06:57.501Z,1013.93
2022-10-28T23:11:58.238Z,1013.95
2022-10-28T23:16:58.955Z,1014.08
2022-10-28T23:21:59.735Z,1014.01
2022-10-28T23:27:00.534Z,1013.98
2022-10-28T23:32:01.285Z,1013.98
2022-10-28T23:37:01.981Z,1014.17
2022-10-28T23:42:02.770Z,1014.05
2022-10-28T23:47:03.499Z,1014.06
2022-10-28T23:52:04.209Z,1014.00
2022-10-28T23:57:04.929Z,1013.99
